createdAt,value
2023-12-09T00:00:51.946Z,7.20
2023-12-09T00:03:21.528Z,7.70
2023-12-09T00:05:48.621Z,8.13
2023-12-09T00:08:15.650Z,7.60
2023-12-09T00:10:42.322Z,7.07
2023-12-09T00:13:08.948Z,7.30
2023-12-09T00:15:35.709Z,6.77
2023-12-09T00:18:02.473Z,7.73
2023-12-09T00:20:29.443Z,7.43
2023-12-09T00:22:56.239Z,7.27
2023-12-09T00:25:25.769Z,7.63
2023-12-09T00:27:52.493Z,7.90
2023-12-09T00:30:19.296Z,7.70
2023-12-09T00:32:46.085Z,6.43
2023-12-09T00:35:14.743Z,7.70
2023-12-09T00:37:42.420Z,7.97
2023-12-09T00:40:09.515Z,7.00
2023-12-09T00:42:36.396Z,7.20
2023-12-09T00:45:03.330Z,7.10
2023-12-09T00:47:32.261Z,6.83
2023-12-09T00:49:59.105Z,7.17
2023-12-09T00:52:26.016Z,7.40
2023-12-09T00:54:52.892Z,7.07
2023-12-09T00:57:22.023Z,7.00
2023-12-09T00:59:48.841Z,7.60
2023-12-09T01:02:15.741Z,6.97
2023-12-09T01:04:42.622Z,7.67
2023-12-09T01:07:11.731Z,7.00
2023-12-09T01:09:41.311Z,7.60
2023-12-09T01:12:08.192Z,7.43
2023-12-09T01:14:35.387Z,7.07
2023-12-09T01:17:04.615Z,7.57
2023-12-09T01:19:31.271Z,6.60
2023-12-09T01:21:58.038Z,7.37
2023-12-09T01:24:27.977Z,6.87
2023-12-09T01:26:54.673Z,7.43
2023-12-09T01:29:21.509Z,6.93
2023-12-09T01:31:48.182Z,6.70
2023-12-09T01:34:15.068Z,6.63
2023-12-09T01:36:41.956Z,7.10
2023-12-09T01:39:10.261Z,6.93
2023-12-09T01:41:39.922Z,6.60
2023-12-09T01:44:06.742Z,7.33
2023-12-09T01:46:34.335Z,6.83
2023-12-09T01:49:01.277Z,7.10
2023-12-09T01:51:28.915Z,6.73
2023-12-09T01:53:56.252Z,7.47
2023-12-09T01:56:23.251Z,6.70
2023-12-09T01:58:50.667Z,7.47
2023-12-09T02:01:17.549Z,7.60
2023-12-09T02:03:44.746Z,6.53
2023-12-09T02:06:11.656Z,6.77
2023-12-09T02:08:39.521Z,7.10
2023-12-09T02:11:46.430Z,6.97
2023-12-09T02:14:21.809Z,7.20
2023-12-09T02:17:09.381Z,6.30
2023-12-09T02:19:36.769Z,6.57
2023-12-09T02:22:05.322Z,6.87
2023-12-09T02:24:33.020Z,7.53
2023-12-09T02:27:05.999Z,7.73
2023-12-09T02:29:39.973Z,6.93
2023-12-09T02:32:09.184Z,7.67
2023-12-09T02:34:40.762Z,7.23
2023-12-09T02:37:09.458Z,7.63
2023-12-09T02:39:37.596Z,7.33
2023-12-09T02:42:06.817Z,7.63
2023-12-09T02:44:34.268Z,7.30
2023-12-09T02:47:01.175Z,7.67
2023-12-09T02:49:28.010Z,6.67
2023-12-09T02:51:54.848Z,6.97
2023-12-09T02:54:21.652Z,7.07
2023-12-09T02:56:55.724Z,6.70
2023-12-09T02:59:22.463Z,7.40
2023-12-09T03:01:49.287Z,7.00
2023-12-09T03:04:16.336Z,6.90
2023-12-09T03:06:46.074Z,7.83
2023-12-09T03:09:12.876Z,7.53
2023-12-09T03:11:39.668Z,7.50
2023-12-09T03:14:06.427Z,7.40
2023-12-09T03:16:35.756Z,7.33
2023-12-09T03:19:05.495Z,8.40
2023-12-09T03:21:32.624Z,7.50
2023-12-09T03:24:02.198Z,7.80
2023-12-09T03:26:28.922Z,7.83
2023-12-09T03:28:55.620Z,8.00
2023-12-09T03:31:27.866Z,7.77
2023-12-09T03:33:54.648Z,7.57
2023-12-09T03:36:21.459Z,7.80
2023-12-09T03:38:48.228Z,7.60
2023-12-09T03:41:14.987Z,6.93
2023-12-09T03:43:41.830Z,8.83
2023-12-09T03:46:08.624Z,7.67
2023-12-09T03:48:35.507Z,7.83
2023-12-09T03:51:03.206Z,7.67
2023-12-09T03:53:30.094Z,8.13
2023-12-09T03:55:59.526Z,8.47
2023-12-09T03:58:26.268Z,7.00
2023-12-09T04:00:52.969Z,8.03
2023-12-09T04:03:20.089Z,7.67
2023-12-09T04:05:47.100Z,7.70
2023-12-09T04:08:13.844Z,7.63
2023-12-09T04:10:40.536Z,7.33
2023-12-09T04:13:07.390Z,7.10
2023-12-09T04:15:34.280Z,7.40
2023-12-09T04:18:01.124Z,7.30
2023-12-09T04:20:28.265Z,7.73
2023-12-09T04:22:55.686Z,7.03
2023-12-09T04:25:25.017Z,7.37
2023-12-09T04:27:52.534Z,7.20
2023-12-09T04:30:19.415Z,6.73
2023-12-09T04:32:46.336Z,6.77
2023-12-09T04:35:13.099Z,6.83
2023-12-09T04:37:39.978Z,6.90
2023-12-09T04:40:11.552Z,6.67
2023-12-09T04:42:39.282Z,6.63
2023-12-09T04:45:07.742Z,7.60
2023-12-09T04:47:38.145Z,7.53
2023-12-09T04:50:05.871Z,6.43
2023-12-09T04:52:32.593Z,6.57
2023-12-09T04:54:59.395Z,5.53
2023-12-09T04:57:26.173Z,6.70
2023-12-09T04:59:53.065Z,6.27
2023-12-09T05:02:21.542Z,5.87
2023-12-09T05:04:48.464Z,6.20
2023-12-09T05:07:15.542Z,5.60
2023-12-09T05:09:42.747Z,5.67
2023-12-09T05:12:09.568Z,5.13
2023-12-09T05:14:36.570Z,5.73
2023-12-09T05:17:03.325Z,5.90
2023-12-09T05:19:30.070Z,5.43
2023-12-09T05:21:56.889Z,5.40
2023-12-09T05:24:23.705Z,6.63
2023-12-09T05:26:50.455Z,5.47
2023-12-09T05:29:17.115Z,5.57
2023-12-09T05:31:44.430Z,5.53
2023-12-09T05:34:11.426Z,4.77
2023-12-09T05:36:39.490Z,6.07
2023-12-09T05:39:06.485Z,5.30
2023-12-09T05:41:33.397Z,5.43
2023-12-09T05:44:00.277Z,5.80
2023-12-09T05:46:26.986Z,5.70
2023-12-09T05:48:53.851Z,5.50
2023-12-09T05:51:20.710Z,4.70
2023-12-09T05:53:47.493Z,5.93
2023-12-09T05:56:14.328Z,4.70
2023-12-09T05:58:44.046Z,4.57
2023-12-09T06:01:11.518Z,4.90
2023-12-09T06:03:38.476Z,4.70
2023-12-09T06:06:06.109Z,4.93
2023-12-09T06:08:33.957Z,4.87
2023-12-09T06:11:01.027Z,5.20
2023-12-09T06:13:27.746Z,4.80
2023-12-09T06:15:54.462Z,5.43
2023-12-09T06:18:21.267Z,5.80
2023-12-09T06:20:48.123Z,4.40
2023-12-09T06:23:14.920Z,5.17
2023-12-09T06:25:41.672Z,5.60
2023-12-09T06:28:08.402Z,4.67
2023-12-09T06:30:35.304Z,4.47
2023-12-09T06:33:02.253Z,4.53
2023-12-09T06:35:29.260Z,4.37
2023-12-09T06:37:57.272Z,4.47
2023-12-09T06:40:24.815Z,4.60
2023-12-09T06:42:51.815Z,4.07
2023-12-09T06:45:18.782Z,4.53
2023-12-09T06:47:45.682Z,4.47
2023-12-09T06:50:12.608Z,4.27
2023-12-09T06:52:40.569Z,4.47
2023-12-09T06:55:07.989Z,3.70
2023-12-09T06:57:35.838Z,3.73
2023-12-09T07:00:06.301Z,4.00
2023-12-09T07:02:44.175Z,3.70
2023-12-09T07:05:19.491Z,4.60
2023-12-09T07:07:47.578Z,3.87
2023-12-09T07:10:14.909Z,4.27
2023-12-09T07:12:41.691Z,3.70
2023-12-09T07:15:09.602Z,4.40
2023-12-09T07:17:36.496Z,4.23
2023-12-09T07:20:06.904Z,3.47
2023-12-09T07:22:33.941Z,3.47
2023-12-09T07:25:00.678Z,3.50
2023-12-09T07:27:28.042Z,3.87
2023-12-09T07:29:54.948Z,3.13
2023-12-09T07:32:21.874Z,3.67
2023-12-09T07:34:48.709Z,3.73
2023-12-09T07:37:15.959Z,3.70
2023-12-09T07:39:43.496Z,4.10
2023-12-09T07:42:13.438Z,3.27
2023-12-09T07:44:40.162Z,3.30
2023-12-09T07:47:06.973Z,4.10
2023-12-09T07:49:34.031Z,3.50
2023-12-09T07:52:01.023Z,3.60
2023-12-09T07:54:28.500Z,3.87
2023-12-09T07:56:55.270Z,3.60
2023-12-09T07:59:22.131Z,3.87
2023-12-09T08:01:48.926Z,3.83
2023-12-09T08:04:16.044Z,3.37
2023-12-09T08:06:42.875Z,3.30
2023-12-09T08:09:10.622Z,3.27
2023-12-09T08:11:37.401Z,2.73
2023-12-09T08:14:04.109Z,3.10
2023-12-09T08:16:30.871Z,3.70
2023-12-09T08:18:57.742Z,3.00
2023-12-09T08:21:26.171Z,3.60
2023-12-09T08:23:53.144Z,2.93
2023-12-09T08:26:20.201Z,2.70
2023-12-09T08:28:47.412Z,2.93
2023-12-09T08:31:14.523Z,3.60
2023-12-09T08:33:42.140Z,3.43
2023-12-09T08:36:10.058Z,3.10
2023-12-09T08:38:39.635Z,2.73
2023-12-09T08:41:09.484Z,3.03
2023-12-09T08:43:36.226Z,2.80
2023-12-09T08:46:03.191Z,3.23
2023-12-09T08:48:30.203Z,2.70
2023-12-09T08:50:57.002Z,2.77
2023-12-09T08:53:23.685Z,2.90
2023-12-09T08:55:50.441Z,2.93
2023-12-09T08:58:17.326Z,2.60
2023-12-09T09:00:44.417Z,3.07
2023-12-09T09:03:11.440Z,3.00
2023-12-09T09:05:38.175Z,2.83
2023-12-09T09:08:05.299Z,3.03
2023-12-09T09:10:32.058Z,3.07
2023-12-09T09:12:58.762Z,3.03
2023-12-09T09:15:25.530Z,2.60
2023-12-09T09:17:52.437Z,2.43
2023-12-09T09:20:19.365Z,2.57
2023-12-09T09:22:50.386Z,2.13
2023-12-09T09:25:22.738Z,2.67
2023-12-09T09:27:52.788Z,2.60
2023-12-09T09:30:21.536Z,2.30
2023-12-09T09:32:48.529Z,2.70
2023-12-09T09:35:15.497Z,2.73
2023-12-09T09:37:42.234Z,2.80
2023-12-09T09:40:09.445Z,2.50
2023-12-09T09:42:43.818Z,2.63
2023-12-09T09:45:27.472Z,2.50
2023-12-09T09:47:57.685Z,2.53
2023-12-09T09:50:26.724Z,2.40
2023-12-09T09:52:54.709Z,2.73
2023-12-09T09:55:23.104Z,2.30
2023-12-09T09:57:51.160Z,2.50
2023-12-09T10:00:20.554Z,2.50
2023-12-09T10:02:52.446Z,2.30
2023-12-09T10:05:23.137Z,2.47
2023-12-09T10:07:49.916Z,2.30
2023-12-09T10:10:19.435Z,2.30
2023-12-09T10:12:49.218Z,2.10
2023-12-09T10:15:15.969Z,1.97
2023-12-09T10:17:43.021Z,2.00
2023-12-09T10:20:10.622Z,2.10
2023-12-09T10:22:39.178Z,2.63
2023-12-09T10:25:06.437Z,2.00
2023-12-09T10:27:34.079Z,2.10
2023-12-09T10:30:01.870Z,1.90
2023-12-09T10:32:30.626Z,2.10
2023-12-09T10:34:59.665Z,1.87
2023-12-09T10:37:28.242Z,2.40
2023-12-09T10:39:55.077Z,1.97
2023-12-09T10:42:24.184Z,2.90
2023-12-09T10:44:51.100Z,1.87
2023-12-09T10:47:18.194Z,2.30
2023-12-09T10:49:45.064Z,2.63
2023-12-09T10:52:11.950Z,2.10
2023-12-09T10:54:42.068Z,1.90
2023-12-09T10:57:12.143Z,1.90
2023-12-09T10:59:43.249Z,1.83
2023-12-09T11:02:10.292Z,1.73
2023-12-09T11:04:39.842Z,1.77
2023-12-09T11:07:07.826Z,2.00
2023-12-09T11:09:35.216Z,1.87
2023-12-09T11:12:04.631Z,1.83
2023-12-09T11:14:32.629Z,2.13
2023-12-09T11:17:01.471Z,1.37
2023-12-09T11:19:28.580Z,1.83
2023-12-09T11:21:55.966Z,1.87
2023-12-09T11:24:31.119Z,1.43
2023-12-09T11:26:57.973Z,1.63
2023-12-09T11:29:26.182Z,1.60
2023-12-09T11:31:54.548Z,1.70
2023-12-09T11:34:26.004Z,1.23
2023-12-09T11:36:53.866Z,1.50
2023-12-09T11:39:23.146Z,1.20
2023-12-09T11:41:51.087Z,1.47
2023-12-09T11:44:18.254Z,1.73
2023-12-09T11:46:46.969Z,1.10
2023-12-09T11:49:14.301Z,1.20
2023-12-09T11:51:47.487Z,1.00
2023-12-09T11:54:14.345Z,1.03
2023-12-09T11:56:41.318Z,1.50
2023-12-09T11:59:08.410Z,1.27
2023-12-09T12:01:37.564Z,1.17
2023-12-09T12:04:05.437Z,1.47
2023-12-09T12:06:33.785Z,1.40
2023-12-09T12:09:00.894Z,1.30
2023-12-09T12:11:27.711Z,1.00
2023-12-09T12:13:54.651Z,1.43
2023-12-09T12:16:22.314Z,1.40
2023-12-09T12:18:49.770Z,1.00
2023-12-09T12:21:17.194Z,1.00
2023-12-09T12:23:44.554Z,1.30
2023-12-09T12:26:12.485Z,1.10
2023-12-09T12:28:39.510Z,0.93
2023-12-09T12:31:07.864Z,0.80
2023-12-09T12:33:35.683Z,0.90
2023-12-09T12:36:02.949Z,1.47
2023-12-09T12:38:30.224Z,0.90
2023-12-09T12:40:58.711Z,0.90
2023-12-09T12:43:29.612Z,0.90
2023-12-09T12:45:59.214Z,0.97
2023-12-09T12:48:26.538Z,1.00
2023-12-09T12:50:54.232Z,0.70
2023-12-09T12:53:23.955Z,0.80
2023-12-09T12:55:51.056Z,0.80
2023-12-09T12:58:17.867Z,0.50
2023-12-09T13:00:44.910Z,0.50
2023-12-09T13:03:11.798Z,0.80
2023-12-09T13:05:38.718Z,0.70
2023-12-09T13:08:05.893Z,0.80
2023-12-09T13:10:33.032Z,0.90
2023-12-09T13:13:00.946Z,1.00
2023-12-09T13:15:28.246Z,1.03
2023-12-09T13:17:55.758Z,0.80
2023-12-09T13:20:22.530Z,0.97
2023-12-09T13:22:49.364Z,0.77
2023-12-09T13:25:18.501Z,1.00
2023-12-09T13:27:45.892Z,0.90
2023-12-09T13:30:14.645Z,0.70
2023-12-09T13:32:41.860Z,0.90
2023-12-09T13:35:09.010Z,0.60
2023-12-09T13:37:37.288Z,0.83
2023-12-09T13:40:06.163Z,0.70
2023-12-09T13:42:33.501Z,0.83
2023-12-09T13:45:00.709Z,0.70
2023-12-09T13:47:27.544Z,0.83
2023-12-09T13:49:56.813Z,0.70
2023-12-09T13:52:29.902Z,0.90
2023-12-09T13:54:57.173Z,0.80
2023-12-09T13:57:24.189Z,0.80
2023-12-09T13:59:50.991Z,0.50
2023-12-09T14:02:18.634Z,0.70
2023-12-09T14:04:45.624Z,0.77
2023-12-09T14:07:12.486Z,0.67
2023-12-09T14:09:39.375Z,0.60
2023-12-09T14:12:06.835Z,0.70
2023-12-09T14:14:34.011Z,0.73
2023-12-09T14:17:01.237Z,0.60
2023-12-09T14:19:28.445Z,0.63
2023-12-09T14:21:55.340Z,0.67
2023-12-09T14:24:22.301Z,1.43
2023-12-09T14:26:49.347Z,0.70
2023-12-09T14:29:16.170Z,0.67
2023-12-09T14:31:50.639Z,0.63
2023-12-09T14:34:17.671Z,0.50
2023-12-09T14:36:44.769Z,1.23
2023-12-09T14:39:12.964Z,0.70
2023-12-09T14:41:41.218Z,0.50
2023-12-09T14:44:09.149Z,0.50
2023-12-09T14:46:36.721Z,0.40
2023-12-09T14:49:06.604Z,0.27
2023-12-09T14:51:40.711Z,0.43
2023-12-09T14:54:12.521Z,0.50
2023-12-09T14:56:42.513Z,0.40
2023-12-09T14:59:09.412Z,0.40
2023-12-09T15:01:36.967Z,0.83
2023-12-09T15:04:05.733Z,0.60
2023-12-09T15:06:34.471Z,0.50
2023-12-09T15:09:01.907Z,0.70
2023-12-09T15:11:28.933Z,0.77
2023-12-09T15:13:55.745Z,0.80
2023-12-09T15:16:23.009Z,0.90
2023-12-09T15:18:50.157Z,0.67
2023-12-09T15:21:17.163Z,0.60
2023-12-09T15:23:44.083Z,0.70
2023-12-09T15:26:11.890Z,0.50
2023-12-09T15:28:39.063Z,0.43
2023-12-09T15:31:05.919Z,0.40
2023-12-09T15:33:32.920Z,0.50
2023-12-09T15:35:59.938Z,0.60
2023-12-09T15:38:26.703Z,0.67
2023-12-09T15:40:56.059Z,0.60
2023-12-09T15:43:22.997Z,0.60
2023-12-09T15:45:50.335Z,0.83
2023-12-09T15:48:17.746Z,0.87
2023-12-09T15:50:44.743Z,0.80
2023-12-09T15:53:11.567Z,0.60
2023-12-09T15:55:38.380Z,0.90
2023-12-09T15:58:08.176Z,0.70
2023-12-09T16:00:35.012Z,0.77
2023-12-09T16:03:05.293Z,0.70
2023-12-09T16:05:32.190Z,1.17
2023-12-09T16:08:02.234Z,6.63
2023-12-09T16:10:29.261Z,1.90
2023-12-09T16:12:56.268Z,1.13
2023-12-09T16:15:26.170Z,1.17
2023-12-09T16:17:54.642Z,0.97
2023-12-09T16:20:21.995Z,0.90
2023-12-09T16:22:48.869Z,1.00
2023-12-09T16:25:15.796Z,1.00
2023-12-09T16:27:42.686Z,1.17
2023-12-09T16:30:11.586Z,1.30
2023-12-09T16:32:38.716Z,1.20
2023-12-09T16:35:06.839Z,1.30
2023-12-09T16:37:35.168Z,1.57
2023-12-09T16:40:05.446Z,1.57
2023-12-09T16:42:32.989Z,1.67
2023-12-09T16:44:59.988Z,1.70
2023-12-09T16:47:31.259Z,1.70
2023-12-09T16:49:58.391Z,1.60
2023-12-09T16:52:25.338Z,1.73
2023-12-09T16:54:52.258Z,2.20
2023-12-09T16:57:19.287Z,2.10
2023-12-09T16:59:46.160Z,2.33
2023-12-09T17:02:13.347Z,2.20
2023-12-09T17:04:40.244Z,2.37
2023-12-09T17:07:07.037Z,2.10
2023-12-09T17:09:34.262Z,2.70
2023-12-09T17:12:01.102Z,2.33
2023-12-09T17:14:28.214Z,2.43
2023-12-09T17:16:55.393Z,2.23
2023-12-09T17:19:22.668Z,2.40
2023-12-09T17:21:52.399Z,2.40
2023-12-09T17:24:20.727Z,2.77
2023-12-09T17:26:50.689Z,2.70
2023-12-09T17:29:17.671Z,2.67
2023-12-09T17:31:46.288Z,3.00
2023-12-09T17:34:14.644Z,2.90
2023-12-09T17:36:41.500Z,3.20
2023-12-09T17:39:08.660Z,3.63
2023-12-09T17:41:35.505Z,4.27
2023-12-09T17:44:02.382Z,4.23
2023-12-09T17:46:29.240Z,4.47
2023-12-09T17:48:56.864Z,5.43
2023-12-09T17:51:29.030Z,6.63
2023-12-09T17:53:56.865Z,7.20
2023-12-09T17:56:23.618Z,7.33
2023-12-09T17:58:54.521Z,8.00
2023-12-09T18:01:29.114Z,8.63
2023-12-09T18:03:59.318Z,10.13
2023-12-09T18:06:27.278Z,10.53
2023-12-09T18:08:55.311Z,10.70
2023-12-09T18:11:22.843Z,11.37
2023-12-09T18:13:49.795Z,12.03
2023-12-09T18:16:18.276Z,11.20
2023-12-09T18:18:46.044Z,11.90
2023-12-09T18:21:17.119Z,12.03
2023-12-09T18:23:44.091Z,10.37
2023-12-09T18:26:11.109Z,12.10
2023-12-09T18:28:39.709Z,9.83
2023-12-09T18:31:07.075Z,9.97
2023-12-09T18:33:36.753Z,8.90
2023-12-09T18:36:04.317Z,6.27
2023-12-09T18:38:31.266Z,5.63
2023-12-09T18:40:58.098Z,4.37
2023-12-09T18:43:25.070Z,4.07
2023-12-09T18:45:53.596Z,4.43
2023-12-09T18:48:20.769Z,3.83
2023-12-09T18:50:48.193Z,3.33
2023-12-09T18:53:15.068Z,3.10
2023-12-09T18:55:41.914Z,4.03
2023-12-09T18:58:08.801Z,3.77
2023-12-09T19:00:37.216Z,3.43
2023-12-09T19:03:04.607Z,2.83
2023-12-09T19:05:31.625Z,3.23
2023-12-09T19:07:58.420Z,3.03
2023-12-09T19:10:26.124Z,3.20
2023-12-09T19:12:52.995Z,3.73
2023-12-09T19:15:22.957Z,3.97
2023-12-09T19:17:49.867Z,2.97
2023-12-09T19:20:16.690Z,3.60
2023-12-09T19:22:43.578Z,3.10
2023-12-09T19:25:10.355Z,3.10
2023-12-09T19:27:37.375Z,3.60
2023-12-09T19:30:04.794Z,3.20
2023-12-09T19:32:31.990Z,4.03
2023-12-09T19:34:59.077Z,2.67
2023-12-09T19:37:25.929Z,3.40
2023-12-09T19:39:52.696Z,3.43
2023-12-09T19:42:19.668Z,3.40
2023-12-09T19:44:46.769Z,3.57
2023-12-09T19:47:16.027Z,3.37
2023-12-09T19:49:43.718Z,3.23
2023-12-09T19:52:10.663Z,3.27
2023-12-09T19:54:40.462Z,3.00
2023-12-09T19:57:09.078Z,4.00
2023-12-09T19:59:36.010Z,3.30
2023-12-09T20:02:02.850Z,3.40
2023-12-09T20:04:29.726Z,3.97
2023-12-09T20:06:57.402Z,3.10
2023-12-09T20:09:24.378Z,3.17
2023-12-09T20:11:51.183Z,4.13
2023-12-09T20:14:18.035Z,4.27
2023-12-09T20:16:45.406Z,4.10
2023-12-09T20:19:12.264Z,3.30
2023-12-09T20:21:39.218Z,3.33
2023-12-09T20:24:06.354Z,3.43
2023-12-09T20:26:33.216Z,3.00
2023-12-09T20:29:00.240Z,4.13
2023-12-09T20:31:27.020Z,4.43
2023-12-09T20:33:53.935Z,3.23
2023-12-09T20:36:21.950Z,3.80
2023-12-09T20:38:48.750Z,3.80
2023-12-09T20:41:15.793Z,3.70
2023-12-09T20:43:45.206Z,3.63
2023-12-09T20:46:15.267Z,3.47
2023-12-09T20:48:42.225Z,3.97
2023-12-09T20:51:09.203Z,3.57
2023-12-09T20:53:36.341Z,3.27
2023-12-09T20:56:04.506Z,3.70
2023-12-09T20:58:31.924Z,4.03
2023-12-09T21:00:59.656Z,3.27
2023-12-09T21:03:26.493Z,4.20
2023-12-09T21:05:53.300Z,4.37
2023-12-09T21:08:20.063Z,3.57
2023-12-09T21:10:46.910Z,3.77
2023-12-09T21:13:13.759Z,3.53
2023-12-09T21:15:42.043Z,4.33
2023-12-09T21:18:10.139Z,3.83
2023-12-09T21:20:37.554Z,3.80
2023-12-09T21:23:04.406Z,4.03
2023-12-09T21:25:37.123Z,3.70
2023-12-09T21:28:04.902Z,4.10
2023-12-09T21:30:32.681Z,4.10
2023-12-09T21:33:01.014Z,3.10
2023-12-09T21:35:27.915Z,3.83
2023-12-09T21:37:54.879Z,3.80
2023-12-09T21:40:21.725Z,4.20
2023-12-09T21:42:48.637Z,3.87
2023-12-09T21:45:15.804Z,4.73
2023-12-09T21:47:42.687Z,4.23
2023-12-09T21:50:09.694Z,4.50
2023-12-09T21:52:36.504Z,4.27
2023-12-09T21:55:03.513Z,4.03
2023-12-09T21:57:36.456Z,4.23
2023-12-09T22:00:04.406Z,4.10
2023-12-09T22:02:31.449Z,3.63
2023-12-09T22:04:58.646Z,4.87
2023-12-09T22:07:25.551Z,4.00
2023-12-09T22:09:52.656Z,4.43
2023-12-09T22:12:25.548Z,3.70
2023-12-09T22:14:52.414Z,4.73
2023-12-09T22:17:19.606Z,4.10
2023-12-09T22:19:46.458Z,3.57
2023-12-09T22:22:13.376Z,4.73
2023-12-09T22:24:40.166Z,4.27
2023-12-09T22:27:07.886Z,4.20
2023-12-09T22:29:36.179Z,4.73
2023-12-09T22:32:06.216Z,4.10
2023-12-09T22:34:33.236Z,3.50
2023-12-09T22:37:00.112Z,4.77
2023-12-09T22:39:27.044Z,4.13
2023-12-09T22:41:53.937Z,3.43
2023-12-09T22:44:23.652Z,4.10
2023-12-09T22:46:50.489Z,4.10
2023-12-09T22:49:18.870Z,4.17
2023-12-09T22:51:46.292Z,4.00
2023-12-09T22:54:13.024Z,4.10
2023-12-09T22:56:39.864Z,4.27
2023-12-09T22:59:06.734Z,4.27
2023-12-09T23:01:36.829Z,3.87
2023-12-09T23:04:03.777Z,4.03
2023-12-09T23:06:30.819Z,3.77
2023-12-09T23:08:58.615Z,3.97
2023-12-09T23:11:28.619Z,3.97
2023-12-09T23:13:55.483Z,3.20
2023-12-09T23:16:22.247Z,3.67
2023-12-09T23:18:49.302Z,3.60
2023-12-09T23:21:16.861Z,3.93
2023-12-09T23:23:43.609Z,3.30
2023-12-09T23:26:10.398Z,4.00
2023-12-09T23:28:37.174Z,4.63
2023-12-09T23:31:04.129Z,4.20
2023-12-09T23:33:32.212Z,4.30
2023-12-09T23:35:59.303Z,3.90
2023-12-09T23:38:29.011Z,3.80
2023-12-09T23:40:55.835Z,3.57
2023-12-09T23:43:22.951Z,4.80
2023-12-09T23:45:49.932Z,4.00
2023-12-09T23:48:19.908Z,4.47
2023-12-09T23:50:47.028Z,3.80
2023-12-09T23:53:15.418Z,3.77
2023-12-09T23:55:42.379Z,3.83
2023-12-09T23:58:09.709Z,4.33
